createdAt,value
2017-11-09T00:01:34.091Z,10.62
2017-11-09T00:04:07.385Z,10.55
2017-11-09T00:06:34.944Z,10.53
2017-11-09T00:09:02.495Z,10.53
2017-11-09T00:11:30.053Z,10.39
2017-11-09T00:13:57.628Z,10.42
2017-11-09T00:16:25.181Z,10.39
2017-11-09T00:18:52.745Z,10.44
2017-11-09T00:21:20.299Z,10.51
2017-11-09T00:23:47.861Z,10.49
2017-11-09T00:26:15.423Z,10.69
2017-11-09T00:28:42.954Z,10.74
2017-11-09T00:31:10.468Z,10.67
2017-11-09T00:33:38.405Z,10.63
2017-11-09T00:36:05.960Z,10.50
2017-11-09T00:38:33.488Z,10.56
2017-11-09T00:41:01.368Z,10.34
2017-11-09T00:43:28.893Z,10.36
2017-11-09T00:45:56.436Z,10.42
2017-11-09T00:48:24.143Z,10.35
2017-11-09T00:50:51.664Z,10.47
2017-11-09T00:53:19.193Z,10.39
2017-11-09T00:55:46.923Z,10.45
2017-11-09T00:58:14.448Z,10.39
2017-11-09T01:00:41.992Z,10.31
2017-11-09T01:03:09.639Z,10.32
2017-11-09T01:05:37.181Z,10.34
2017-11-09T01:08:04.744Z,10.39
2017-11-09T01:10:32.483Z,10.39
2017-11-09T01:13:00.011Z,10.39
2017-11-09T01:15:27.573Z,10.47
2017-11-09T01:17:55.167Z,10.54
2017-11-09T01:20:22.790Z,10.52
2017-11-09T01:22:50.312Z,10.57
2017-11-09T01:25:17.864Z,10.60
2017-11-09T01:27:45.403Z,10.64
2017-11-09T01:30:12.979Z,10.62
2017-11-09T01:32:40.945Z,10.68
2017-11-09T01:35:08.469Z,10.68
2017-11-09T01:37:35.993Z,10.63
2017-11-09T01:40:03.726Z,10.64
2017-11-09T01:42:31.287Z,10.61
2017-11-09T01:44:58.847Z,10.55
2017-11-09T01:47:26.583Z,10.58
2017-11-09T01:49:54.104Z,10.63
2017-11-09T01:52:21.628Z,10.66
2017-11-09T01:54:49.408Z,10.67
2017-11-09T01:57:16.928Z,10.66
2017-11-09T01:59:44.463Z,10.66
2017-11-09T02:02:12.271Z,10.62
2017-11-09T02:04:39.829Z,10.57
2017-11-09T02:07:07.348Z,10.63
2017-11-09T02:09:35.136Z,10.63
2017-11-09T02:12:02.699Z,10.63
2017-11-09T02:14:30.219Z,10.65
2017-11-09T02:16:57.932Z,10.73
2017-11-09T02:19:25.518Z,10.55
2017-11-09T02:21:53.045Z,10.66
2017-11-09T02:24:21.006Z,10.67
2017-11-09T02:26:48.528Z,10.65
2017-11-09T02:29:16.057Z,10.58
2017-11-09T02:31:43.900Z,10.61
2017-11-09T02:34:11.417Z,10.53
2017-11-09T02:36:38.963Z,10.49
2017-11-09T02:39:06.783Z,10.23
2017-11-09T02:41:34.351Z,10.39
2017-11-09T02:44:01.883Z,10.35
2017-11-09T02:46:29.747Z,10.41
2017-11-09T02:48:57.264Z,10.44
2017-11-09T02:51:24.796Z,10.56
2017-11-09T02:53:52.548Z,10.62
2017-11-09T02:56:20.108Z,10.49
2017-11-09T02:58:47.627Z,10.57
2017-11-09T03:01:15.337Z,10.56
2017-11-09T03:03:42.862Z,10.56
2017-11-09T03:06:10.401Z,10.62
2017-11-09T03:08:38.004Z,10.60
2017-11-09T03:11:05.562Z,10.67
2017-11-09T03:13:33.081Z,10.57
2017-11-09T03:16:00.993Z,10.63
2017-11-09T03:18:28.549Z,10.60
2017-11-09T03:20:56.106Z,10.62
2017-11-09T03:23:23.887Z,10.55
2017-11-09T03:25:51.429Z,10.64
2017-11-09T03:28:18.990Z,10.76
2017-11-09T03:30:47.984Z,10.67
2017-11-09T03:33:15.544Z,10.68
2017-11-09T03:35:43.100Z,10.74
2017-11-09T03:38:10.966Z,10.72
2017-11-09T03:40:38.524Z,10.71
2017-11-09T03:43:06.084Z,10.72
2017-11-09T03:45:33.647Z,10.65
2017-11-09T03:48:01.166Z,10.70
2017-11-09T03:50:28.693Z,10.67
2017-11-09T03:52:56.710Z,10.73
2017-11-09T03:55:24.243Z,10.69
2017-11-09T03:57:51.768Z,10.63
2017-11-09T04:00:19.484Z,10.67
2017-11-09T04:02:47.011Z,10.69
2017-11-09T04:05:14.532Z,10.64
2017-11-09T04:07:42.125Z,10.50
2017-11-09T04:10:09.647Z,10.56
2017-11-09T04:12:37.202Z,10.60
2017-11-09T04:15:04.775Z,10.44
2017-11-09T04:17:32.299Z,10.46
2017-11-09T04:19:59.819Z,10.60
2017-11-09T04:22:27.384Z,10.29
2017-11-09T04:24:54.908Z,10.41
2017-11-09T04:27:22.455Z,10.52
2017-11-09T04:29:50.210Z,10.45
2017-11-09T04:32:17.729Z,10.53
2017-11-09T04:34:45.256Z,10.58
2017-11-09T04:37:13.101Z,10.50
2017-11-09T04:39:40.626Z,10.38
2017-11-09T04:42:08.152Z,10.34
2017-11-09T04:44:35.860Z,10.32
2017-11-09T04:47:03.388Z,10.46
2017-11-09T04:49:30.920Z,10.35
2017-11-09T04:51:59.764Z,10.21
2017-11-09T04:54:27.283Z,10.30
2017-11-09T04:56:54.814Z,10.23
2017-11-09T04:59:22.567Z,10.32
2017-11-09T05:01:50.145Z,10.23
2017-11-09T05:04:17.684Z,10.25
2017-11-09T05:06:45.446Z,10.34
2017-11-09T05:09:13.008Z,10.38
2017-11-09T05:11:41.487Z,10.44
2017-11-09T05:14:09.046Z,10.52
2017-11-09T05:16:36.607Z,10.57
2017-11-09T05:19:04.166Z,10.60
2017-11-09T05:21:31.725Z,10.56
2017-11-09T05:23:59.243Z,10.60
2017-11-09T05:26:26.792Z,10.62
2017-11-09T05:28:54.505Z,10.66
2017-11-09T05:31:22.065Z,10.61
2017-11-09T05:33:49.621Z,10.63
2017-11-09T05:36:17.359Z,10.63
2017-11-09T05:38:44.880Z,10.62
2017-11-09T05:41:12.403Z,10.60
2017-11-09T05:43:39.972Z,10.59
2017-11-09T05:46:07.511Z,10.59
2017-11-09T05:48:35.033Z,10.56
2017-11-09T05:51:02.823Z,10.63
2017-11-09T05:53:30.353Z,10.62
2017-11-09T05:55:57.880Z,10.57
2017-11-09T05:58:25.436Z,10.60
2017-11-09T06:00:52.960Z,10.60
2017-11-09T06:03:20.487Z,10.58
2017-11-09T06:05:48.095Z,10.62
2017-11-09T06:08:15.656Z,10.56
2017-11-09T06:10:43.184Z,10.58
2017-11-09T06:13:10.772Z,10.56
2017-11-09T06:15:38.312Z,10.49
2017-11-09T06:18:05.833Z,10.45
2017-11-09T06:20:33.653Z,10.43
2017-11-09T06:23:01.255Z,10.45
2017-11-09T06:25:28.813Z,10.34
2017-11-09T06:27:56.638Z,10.33
2017-11-09T06:30:24.235Z,10.34
2017-11-09T06:32:51.759Z,10.27
2017-11-09T06:35:19.567Z,10.19
2017-11-09T06:37:47.131Z,10.33
2017-11-09T06:40:14.652Z,10.28
2017-11-09T06:42:42.483Z,10.33
2017-11-09T06:45:10.007Z,10.24
2017-11-09T06:47:37.532Z,10.18
2017-11-09T06:50:05.192Z,10.17
2017-11-09T06:52:32.743Z,9.60
2017-11-09T06:55:00.301Z,10.02
2017-11-09T06:57:28.044Z,10.12
2017-11-09T06:59:55.623Z,10.28
2017-11-09T07:02:23.182Z,10.26
2017-11-09T07:04:50.741Z,10.30
2017-11-09T07:07:18.302Z,10.10
2017-11-09T07:09:45.860Z,10.17
2017-11-09T07:12:13.419Z,10.17
2017-11-09T07:14:40.938Z,10.19
2017-11-09T07:17:08.460Z,10.14
2017-11-09T07:19:36.383Z,10.09
2017-11-09T07:22:03.912Z,10.10
2017-11-09T07:24:31.444Z,10.10
2017-11-09T07:26:59.017Z,10.15
2017-11-09T07:29:26.540Z,10.10
2017-11-09T07:31:54.061Z,10.12
2017-11-09T07:34:21.859Z,10.03
2017-11-09T07:36:49.420Z,10.25
2017-11-09T07:39:16.951Z,10.30
2017-11-09T07:41:44.517Z,10.27
2017-11-09T07:44:12.040Z,10.37
2017-11-09T07:46:39.586Z,10.32
2017-11-09T07:49:07.334Z,10.44
2017-11-09T07:51:34.865Z,10.53
2017-11-09T07:54:02.454Z,10.50
2017-11-09T07:56:30.484Z,10.55
2017-11-09T07:58:58.017Z,10.60
2017-11-09T08:01:25.545Z,10.76
2017-11-09T08:03:53.129Z,10.76
2017-11-09T08:06:21.643Z,10.57
2017-11-09T08:08:49.168Z,10.52
2017-11-09T08:11:16.831Z,10.67
2017-11-09T08:13:44.365Z,10.61
2017-11-09T08:16:11.901Z,10.53
2017-11-09T08:18:39.482Z,10.52
2017-11-09T08:21:07.051Z,10.39
2017-11-09T08:23:34.588Z,10.60
2017-11-09T08:26:06.380Z,10.66
2017-11-09T08:28:37.520Z,10.46
2017-11-09T08:31:06.843Z,10.25
2017-11-09T08:33:37.000Z,10.43
2017-11-09T08:36:04.572Z,10.48
2017-11-09T08:38:32.217Z,10.41
2017-11-09T08:40:59.781Z,10.16
2017-11-09T08:43:27.340Z,10.37
2017-11-09T08:45:55.083Z,10.41
2017-11-09T08:48:23.484Z,10.62
2017-11-09T08:50:51.040Z,10.51
2017-11-09T08:53:18.817Z,10.34
2017-11-09T08:55:46.363Z,10.36
2017-11-09T08:58:13.921Z,10.67
2017-11-09T09:00:41.875Z,10.89
2017-11-09T09:03:09.396Z,10.96
2017-11-09T09:05:36.920Z,11.09
2017-11-09T09:08:04.647Z,11.05
2017-11-09T09:10:32.166Z,11.06
2017-11-09T09:12:59.700Z,11.00
2017-11-09T09:15:27.347Z,10.98
2017-11-09T09:17:54.871Z,10.94
2017-11-09T09:23:29.492Z,11.29
2017-11-09T09:26:12.880Z,11.39
2017-11-09T09:28:44.953Z,11.32
2017-11-09T09:31:12.916Z,11.32
2017-11-09T09:37:01.056Z,11.05
2017-11-09T09:39:32.548Z,11.16
2017-11-09T09:42:00.100Z,11.27
2017-11-09T09:44:27.651Z,11.22
2017-11-09T09:46:55.177Z,11.44
2017-11-09T09:49:22.869Z,11.56
2017-11-09T09:51:50.422Z,11.31
2017-11-09T09:54:17.981Z,11.38
2017-11-09T09:56:45.731Z,11.51
2017-11-09T09:59:13.252Z,11.58
2017-11-09T10:01:41.786Z,11.50
2017-11-09T10:04:09.345Z,11.55
2017-11-09T10:06:36.905Z,11.62
2017-11-09T10:09:04.464Z,11.59
2017-11-09T10:11:32.209Z,11.60
2017-11-09T10:13:59.779Z,11.84
2017-11-09T10:16:27.305Z,11.81
2017-11-09T10:18:54.988Z,11.66
2017-11-09T10:21:22.603Z,11.77
2017-11-09T10:23:50.140Z,11.88
2017-11-09T10:26:17.993Z,12.11
2017-11-09T10:28:45.551Z,11.93
2017-11-09T10:31:13.120Z,11.98
2017-11-09T10:33:40.811Z,12.03
2017-11-09T10:36:08.331Z,12.08
2017-11-09T10:38:35.843Z,12.14
2017-11-09T10:41:03.634Z,12.29
2017-11-09T10:43:31.172Z,12.21
2017-11-09T10:45:58.697Z,12.31
2017-11-09T10:48:26.416Z,12.44
2017-11-09T10:50:53.995Z,12.68
2017-11-09T10:53:21.552Z,12.92
2017-11-09T10:55:49.522Z,13.07
2017-11-09T10:58:17.081Z,13.23
2017-11-09T11:00:45.386Z,12.93
2017-11-09T11:03:13.219Z,13.21
2017-11-09T11:05:40.781Z,12.91
2017-11-09T11:08:08.341Z,12.39
2017-11-09T11:10:35.892Z,12.12
2017-11-09T11:13:03.408Z,12.13
2017-11-09T11:15:30.933Z,12.10
2017-11-09T11:17:58.680Z,11.92
2017-11-09T11:20:26.240Z,11.79
2017-11-09T11:22:54.604Z,12.03
2017-11-09T11:25:22.396Z,11.79
2017-11-09T11:27:50.350Z,11.86
2017-11-09T11:30:17.948Z,11.98
2017-11-09T11:32:45.980Z,11.98
2017-11-09T11:35:13.542Z,11.90
2017-11-09T11:37:42.004Z,12.02
2017-11-09T11:40:09.664Z,12.25
2017-11-09T11:42:37.187Z,12.37
2017-11-09T11:45:04.718Z,12.59
2017-11-09T11:47:33.985Z,12.50
2017-11-09T11:50:01.558Z,12.41
2017-11-09T11:52:29.076Z,12.38
2017-11-09T11:54:56.891Z,12.51
2017-11-09T11:57:24.440Z,12.53
2017-11-09T11:59:52.004Z,12.50
2017-11-09T12:02:19.560Z,12.58
2017-11-09T12:04:47.095Z,12.50
2017-11-09T12:07:14.615Z,12.48
2017-11-09T12:09:42.427Z,12.51
2017-11-09T12:12:13.723Z,12.53
2017-11-09T12:14:41.245Z,12.51
2017-11-09T12:17:08.847Z,12.62
2017-11-09T12:19:36.363Z,12.43
2017-11-09T12:22:03.921Z,12.39
2017-11-09T12:24:31.889Z,12.45
2017-11-09T12:26:59.450Z,12.50
2017-11-09T12:29:26.971Z,12.63
2017-11-09T12:31:54.752Z,12.61
2017-11-09T12:34:22.272Z,12.60
2017-11-09T12:36:49.792Z,12.61
2017-11-09T12:39:17.453Z,12.62
2017-11-09T12:41:45.008Z,12.63
2017-11-09T12:44:12.573Z,12.53
2017-11-09T12:46:40.315Z,12.54
2017-11-09T12:49:07.891Z,12.54
2017-11-09T12:51:35.450Z,12.53
2017-11-09T12:54:03.295Z,12.14
2017-11-09T12:56:30.874Z,12.11
2017-11-09T12:58:58.434Z,12.15
2017-11-09T13:01:26.175Z,12.11
2017-11-09T13:03:53.703Z,11.98
2017-11-09T13:06:21.236Z,12.04
2017-11-09T13:08:48.807Z,12.14
2017-11-09T13:11:16.329Z,12.14
2017-11-09T13:13:43.891Z,12.17
2017-11-09T13:16:11.604Z,12.10
2017-11-09T13:18:39.123Z,12.10
2017-11-09T13:21:06.643Z,12.16
2017-11-09T13:23:34.515Z,12.20
2017-11-09T13:26:03.939Z,12.20
2017-11-09T13:28:31.503Z,12.12
2017-11-09T13:30:59.388Z,12.23
2017-11-09T13:33:26.977Z,12.35
2017-11-09T13:35:54.507Z,12.31
2017-11-09T13:38:22.330Z,12.43
2017-11-09T13:40:49.884Z,12.42
2017-11-09T13:43:17.472Z,12.38
2017-11-09T13:45:45.222Z,12.44
2017-11-09T13:48:12.743Z,12.42
2017-11-09T13:50:40.297Z,12.43
2017-11-09T13:53:08.020Z,12.35
2017-11-09T13:55:35.570Z,12.31
2017-11-09T13:58:04.052Z,12.46
2017-11-09T14:00:34.659Z,12.42
2017-11-09T14:03:02.185Z,12.35
2017-11-09T14:05:29.736Z,12.36
2017-11-09T14:07:57.769Z,12.20
2017-11-09T14:10:25.292Z,12.20
2017-11-09T14:12:52.824Z,12.29
2017-11-09T14:15:20.549Z,12.25
2017-11-09T14:17:48.062Z,12.33
2017-11-09T14:20:15.871Z,12.28
2017-11-09T14:22:44.628Z,12.25
2017-11-09T14:25:13.242Z,12.28
2017-11-09T14:27:40.883Z,12.16
2017-11-09T14:30:08.462Z,12.23
2017-11-09T14:32:36.132Z,12.22
2017-11-09T14:35:04.530Z,12.36
2017-11-09T14:37:32.475Z,12.31
2017-11-09T14:40:00.607Z,12.34
2017-11-09T14:42:28.383Z,12.27
2017-11-09T14:44:58.836Z,12.27
2017-11-09T14:47:26.804Z,12.23
2017-11-09T14:49:55.388Z,12.39
2017-11-09T14:52:23.958Z,12.35
2017-11-09T14:54:51.703Z,12.21
2017-11-09T14:57:20.732Z,12.29
2017-11-09T14:59:50.643Z,12.25
2017-11-09T15:02:18.527Z,12.11
2017-11-09T15:04:46.374Z,12.13
2017-11-09T15:07:14.157Z,12.10
2017-11-09T15:09:41.838Z,12.03
2017-11-09T15:12:09.381Z,12.08
2017-11-09T15:14:37.139Z,12.08
2017-11-09T15:17:05.776Z,12.01
2017-11-09T15:19:34.224Z,11.67
2017-11-09T15:22:02.257Z,11.79
2017-11-09T15:24:30.825Z,11.84
2017-11-09T15:26:58.456Z,11.87
2017-11-09T15:29:26.785Z,11.89
2017-11-09T15:31:54.340Z,11.80
2017-11-09T15:34:21.917Z,11.64
2017-11-09T15:36:49.751Z,11.60
2017-11-09T15:39:17.533Z,11.65
2017-11-09T15:41:45.088Z,11.72
2017-11-09T15:44:13.083Z,11.57
2017-11-09T15:46:43.282Z,11.48
2017-11-09T15:49:11.655Z,11.58
2017-11-09T15:51:39.756Z,11.58
2017-11-09T15:54:08.516Z,11.48
2017-11-09T15:56:36.292Z,11.46
2017-11-09T15:59:04.260Z,11.54
2017-11-09T16:01:31.919Z,11.52
2017-11-09T16:04:02.233Z,11.35
2017-11-09T16:06:30.297Z,11.36
2017-11-09T16:08:58.077Z,11.30
2017-11-09T16:11:25.936Z,11.36
2017-11-09T16:13:55.189Z,11.31
2017-11-09T16:16:23.202Z,11.31
2017-11-09T16:18:50.865Z,11.23
2017-11-09T16:21:18.632Z,11.31
2017-11-09T16:23:46.396Z,11.38
2017-11-09T16:26:16.236Z,11.34
2017-11-09T16:28:50.304Z,11.25
2017-11-09T16:31:18.185Z,11.28
2017-11-09T16:33:48.421Z,11.20
2017-11-09T16:36:17.104Z,11.19
2017-11-09T16:38:44.649Z,11.19
2017-11-09T16:41:12.543Z,11.20
2017-11-09T16:43:41.186Z,11.25
2017-11-09T16:46:08.979Z,11.26
2017-11-09T16:48:37.418Z,11.29
2017-11-09T16:51:05.620Z,11.38
2017-11-09T16:53:34.716Z,11.39
2017-11-09T16:56:02.359Z,11.33
2017-11-09T16:58:30.857Z,11.31
2017-11-09T17:00:59.192Z,11.28
2017-11-09T17:03:28.207Z,11.19
2017-11-09T17:05:57.662Z,11.04
2017-11-09T17:08:26.523Z,11.17
2017-11-09T17:10:54.089Z,11.18
2017-11-09T17:13:23.584Z,11.20
2017-11-09T17:15:51.147Z,11.23
2017-11-09T17:18:23.823Z,11.23
2017-11-09T17:20:52.259Z,11.20
2017-11-09T17:23:19.792Z,11.17
2017-11-09T17:25:47.345Z,11.18
2017-11-09T17:28:14.982Z,11.16
2017-11-09T17:30:42.631Z,11.21
2017-11-09T17:33:10.321Z,11.25
2017-11-09T17:35:38.040Z,11.24
2017-11-09T17:38:05.654Z,11.36
2017-11-09T17:40:33.301Z,11.34
2017-11-09T17:43:02.443Z,11.23
2017-11-09T17:45:29.992Z,11.18
2017-11-09T17:47:58.224Z,11.11
2017-11-09T17:50:26.221Z,11.22
2017-11-09T17:52:54.054Z,11.21
2017-11-09T17:55:21.818Z,11.30
2017-11-09T17:57:49.466Z,11.36
2017-11-09T18:00:18.165Z,11.30
2017-11-09T18:02:46.357Z,11.35
2017-11-09T18:05:14.104Z,11.38
2017-11-09T18:07:41.764Z,11.40
2017-11-09T18:10:09.630Z,11.39
2017-11-09T18:12:37.189Z,11.44
2017-11-09T18:15:05.157Z,11.45
2017-11-09T18:17:33.025Z,11.46
2017-11-09T18:20:00.564Z,11.46
2017-11-09T18:22:28.449Z,11.48
2017-11-09T18:24:56.320Z,11.49
2017-11-09T18:27:23.869Z,11.53
2017-11-09T18:29:51.415Z,11.50
2017-11-09T18:32:20.249Z,11.43
2017-11-09T18:34:48.396Z,11.46
2017-11-09T18:37:16.162Z,11.46
2017-11-09T18:39:44.244Z,11.49
2017-11-09T18:42:12.097Z,11.51
2017-11-09T18:44:40.166Z,11.51
2017-11-09T18:47:08.751Z,11.52
2017-11-09T18:49:36.623Z,11.49
2017-11-09T18:52:04.280Z,11.53
2017-11-09T18:54:32.367Z,11.48
2017-11-09T18:57:00.077Z,11.55
2017-11-09T18:59:30.974Z,11.49
2017-11-09T19:01:59.076Z,11.42
2017-11-09T19:04:26.811Z,11.26
2017-11-09T19:06:54.652Z,11.23
2017-11-09T19:09:22.620Z,10.92
2017-11-09T19:11:50.384Z,11.02
2017-11-09T19:14:18.148Z,11.18
2017-11-09T19:16:45.848Z,11.08
2017-11-09T19:19:13.646Z,10.47
2017-11-09T19:21:41.556Z,10.67
2017-11-09T19:24:09.724Z,10.76
2017-11-09T19:26:37.686Z,10.57
2017-11-09T19:29:05.285Z,10.50
2017-11-09T19:31:33.520Z,10.75
2017-11-09T19:34:02.718Z,10.52
2017-11-09T19:36:30.498Z,10.48
2017-11-09T19:38:58.487Z,10.39
2017-11-09T19:41:26.521Z,10.32
2017-11-09T19:43:54.392Z,10.29
2017-11-09T19:46:22.695Z,10.20
2017-11-09T19:48:50.640Z,9.98
2017-11-09T19:51:18.708Z,10.12
2017-11-09T19:53:46.982Z,10.51
2017-11-09T19:56:14.848Z,10.74
2017-11-09T19:58:43.287Z,10.69
2017-11-09T20:01:11.806Z,10.76
2017-11-09T20:03:40.001Z,10.81
2017-11-09T20:06:08.060Z,10.83
2017-11-09T20:08:36.349Z,10.77
2017-11-09T20:11:04.195Z,10.72
2017-11-09T20:13:33.085Z,10.43
2017-11-09T20:16:01.053Z,10.46
2017-11-09T20:18:28.836Z,10.64
2017-11-09T20:20:56.707Z,10.36
2017-11-09T20:23:24.775Z,10.32
2017-11-09T20:25:52.546Z,10.55
2017-11-09T20:28:20.407Z,10.52
2017-11-09T20:30:48.355Z,10.57
2017-11-09T20:33:16.228Z,10.54
2017-11-09T20:35:44.208Z,10.66
2017-11-09T20:38:12.372Z,10.43
2017-11-09T20:40:40.205Z,10.54
2017-11-09T20:43:07.902Z,10.46
2017-11-09T20:45:36.129Z,10.69
2017-11-09T20:48:04.197Z,10.64
2017-11-09T20:50:32.513Z,10.63
2017-11-09T20:53:02.427Z,10.74
2017-11-09T20:55:31.113Z,10.50
2017-11-09T20:57:58.980Z,10.70
2017-11-09T21:00:27.205Z,10.64
2017-11-09T21:02:55.026Z,10.69
2017-11-09T21:05:22.886Z,10.67
2017-11-09T21:07:50.754Z,10.68
2017-11-09T21:10:18.513Z,10.80
2017-11-09T21:12:46.385Z,10.81
2017-11-09T21:15:14.631Z,10.80
2017-11-09T21:17:42.934Z,10.84
2017-11-09T21:20:10.597Z,10.95
2017-11-09T21:22:38.468Z,10.82
2017-11-09T21:25:06.227Z,10.77
2017-11-09T21:27:33.889Z,10.75
2017-11-09T21:30:01.628Z,10.86
2017-11-09T21:32:29.325Z,10.73
2017-11-09T21:34:57.077Z,10.90
2017-11-09T21:37:25.045Z,10.89
2017-11-09T21:39:52.726Z,10.82
2017-11-09T21:42:20.472Z,10.88
2017-11-09T21:44:48.137Z,10.87
2017-11-09T21:47:17.739Z,10.91
2017-11-09T21:49:47.999Z,10.94
2017-11-09T21:52:15.639Z,10.84
2017-11-09T21:54:43.385Z,10.89
2017-11-09T21:57:11.254Z,10.72
2017-11-09T21:59:39.035Z,10.77
2017-11-09T22:02:06.679Z,10.41
2017-11-09T22:04:34.443Z,10.59
2017-11-09T22:07:02.308Z,10.57
2017-11-09T22:09:29.990Z,10.58
2017-11-09T22:11:57.940Z,10.66
2017-11-09T22:14:25.600Z,10.70
2017-11-09T22:16:53.207Z,10.73
2017-11-09T22:19:20.991Z,10.71
2017-11-09T22:21:48.688Z,10.69
2017-11-09T22:24:16.518Z,10.70
2017-11-09T22:26:44.472Z,10.75
2017-11-09T22:29:12.058Z,10.76
2017-11-09T22:31:39.603Z,10.76
2017-11-09T22:34:07.510Z,10.60
2017-11-09T22:36:35.170Z,10.80
2017-11-09T22:39:02.731Z,10.75
2017-11-09T22:41:30.312Z,10.73
2017-11-09T22:43:57.859Z,10.75
2017-11-09T22:46:25.372Z,10.75
2017-11-09T22:48:53.264Z,10.81
2017-11-09T22:51:20.783Z,10.87
2017-11-09T22:53:48.307Z,10.92
2017-11-09T22:56:16.053Z,10.95
2017-11-09T22:58:44.511Z,10.95
2017-11-09T23:01:12.151Z,10.91
2017-11-09T23:03:39.958Z,10.99
2017-11-09T23:06:07.475Z,10.84
2017-11-09T23:08:34.995Z,10.85
2017-11-09T23:11:02.802Z,10.81
2017-11-09T23:13:30.332Z,10.80
2017-11-09T23:15:57.860Z,10.48
2017-11-09T23:18:25.704Z,10.59
2017-11-09T23:20:53.227Z,10.43
2017-11-09T23:23:20.756Z,10.53
2017-11-09T23:25:48.604Z,10.45
2017-11-09T23:28:16.166Z,10.55
2017-11-09T23:30:43.723Z,10.28
2017-11-09T23:33:11.486Z,10.17
2017-11-09T23:35:39.045Z,10.26
2017-11-09T23:38:06.622Z,10.28
2017-11-09T23:40:34.180Z,10.55
2017-11-09T23:43:01.699Z,10.32
2017-11-09T23:45:29.220Z,10.27
2017-11-09T23:47:57.047Z,10.12
2017-11-09T23:50:24.605Z,10.14
2017-11-09T23:52:52.179Z,10.09
2017-11-09T23:55:19.907Z,10.25
2017-11-09T23:57:47.435Z,10.27
